Time;durP1;ratioP1;P1;durP2;ratioP2;P2;SDS_P1;SDS_P2;PMS_P1;PMS_P2;Temp;Humidity;BMP_temperature;BMP_pressure;BME280_temperature;BME280_humidity;BME280_pressure;Samples;Min_cycle;Max_cycle;Signal;HPM_P1;HPM_P2
2023/01/19 00:00:55;;;;;;;0.20;0.20;;;;;;;;;;4995487;28;20097;-72
2023/01/19 00:03:20;;;;;;;0.20;0.20;;;;;;;;;;4977560;28;20073;-73
2023/01/19 00:05:45;;;;;;;0.30;0.30;;;;;;;;;;4984146;28;20291;-73
2023/01/19 00:08:14;;;;;;;0.20;0.20;;;;;;;;;;4988995;28;20043;-73
2023/01/19 00:10:40;;;;;;;0.20;0.20;;;;;;;;;;4987104;28;20038;-73
2023/01/19 00:13:05;;;;;;;0.20;0.20;;;;;;;;;;4982548;28;20022;-73
2023/01/19 00:15:30;;;;;;;0.20;0.20;;;;;;;;;;4985936;28;20620;-73
2023/01/19 00:17:56;;;;;;;0.20;0.20;;;;;;;;;;4984600;28;20027;-72
2023/01/19 00:20:21;;;;;;;0.20;0.20;;;;;;;;;;4983917;28;20480;-74
2023/01/19 00:22:49;;;;;;;0.20;0.20;;;;;;;;;;4984637;28;20030;-73
2023/01/19 00:25:14;;;;;;;0.20;0.20;;;;;;;;;;4983903;28;20958;-72
2023/01/19 00:27:40;;;;;;;0.30;0.30;;;;;;;;;;4982961;28;20471;-73
2023/01/19 00:30:05;;;;;;;0.20;0.20;;;;;;;;;;4982022;28;20014;-73
2023/01/19 00:32:30;;;;;;;0.28;0.28;;;;;;;;;;4982645;28;20503;-73
2023/01/19 00:34:56;;;;;;;0.20;0.20;;;;;;;;;;4987537;28;20054;-73
2023/01/19 00:37:21;;;;;;;0.20;0.20;;;;;;;;;;4984073;28;20033;-74
2023/01/19 00:39:46;;;;;;;0.20;0.20;;;;;;;;;;4987299;28;20037;-72
2023/01/19 00:44:56;;;;;;;0.20;0.20;;;;;;;;;;4986076;28;20259;-73
2023/01/19 00:47:21;;;;;;;0.20;0.20;;;;;;;;;;4989590;28;20289;-73
2023/01/19 00:49:46;;;;;;;0.20;0.20;;;;;;;;;;4990271;28;20478;-74
2023/01/19 00:52:11;;;;;;;0.20;0.20;;;;;;;;;;4987202;28;20038;-73
2023/01/19 00:54:36;;;;;;;0.20;0.20;;;;;;;;;;4985478;28;20563;-72
2023/01/19 00:57:02;;;;;;;0.20;0.20;;;;;;;;;;4991211;28;20033;-73
2023/01/19 00:59:27;;;;;;;0.20;0.20;;;;;;;;;;4987327;28;20749;-72
2023/01/19 01:01:52;;;;;;;0.20;0.20;;;;;;;;;;4986354;28;20430;-74
2023/01/19 01:04:18;;;;;;;0.20;0.20;;;;;;;;;;4983331;28;20516;-74
2023/01/19 01:06:43;;;;;;;0.20;0.20;;;;;;;;;;4990174;28;20520;-73
2023/01/19 01:09:10;;;;;;;0.20;0.20;;;;;;;;;;4985582;28;20029;-73
2023/01/19 01:11:45;;;;;;;0.20;0.20;;;;;;;;;;4985132;28;20022;-74
2023/01/19 01:14:10;;;;;;;0.20;0.20;;;;;;;;;;4982701;28;20026;-75
2023/01/19 01:16:36;;;;;;;0.20;0.20;;;;;;;;;;4996972;28;20095;-73
2023/01/19 01:19:01;;;;;;;0.30;0.30;;;;;;;;;;4993530;28;20740;-74
2023/01/19 01:21:26;;;;;;;0.20;0.20;;;;;;;;;;4993494;28;20532;-73
2023/01/19 01:23:51;;;;;;;0.20;0.20;;;;;;;;;;4986389;28;20018;-73
2023/01/19 01:26:17;;;;;;;0.20;0.20;;;;;;;;;;4984317;28;20041;-73
2023/01/19 01:28:42;;;;;;;0.20;0.20;;;;;;;;;;4982548;28;20033;-73
2023/01/19 01:31:07;;;;;;;0.20;0.20;;;;;;;;;;4986415;28;20093;-73
2023/01/19 01:33:32;;;;;;;0.20;0.20;;;;;;;;;;4987894;28;20022;-73
2023/01/19 01:35:57;;;;;;;0.30;0.30;;;;;;;;;;4988889;28;20294;-73
2023/01/19 01:38:23;;;;;;;0.20;0.20;;;;;;;;;;4987616;28;20453;-73
2023/01/19 01:40:48;;;;;;;0.20;0.20;;;;;;;;;;4988409;28;20124;-74
2023/01/19 01:43:14;;;;;;;0.20;0.20;;;;;;;;;;4986619;28;20072;-74
2023/01/19 01:45:40;;;;;;;0.20;0.20;;;;;;;;;;4984190;28;20041;-73
2023/01/19 01:48:05;;;;;;;0.20;0.20;;;;;;;;;;4984534;28;20026;-74
2023/01/19 01:50:32;;;;;;;0.20;0.20;;;;;;;;;;4983388;28;20025;-74
2023/01/19 01:53:00;;;;;;;0.30;0.30;;;;;;;;;;4981580;28;20022;-73
2023/01/19 01:55:27;;;;;;;0.20;0.20;;;;;;;;;;4978091;28;20683;-73
2023/01/19 01:57:56;;;;;;;0.20;0.20;;;;;;;;;;4982178;28;20049;-73
2023/01/19 02:00:21;;;;;;;0.20;0.20;;;;;;;;;;4980340;28;20041;-73
2023/01/19 02:02:49;;;;;;;0.20;0.20;;;;;;;;;;4987816;28;20025;-73
2023/01/19 02:05:18;;;;;;;0.20;0.20;;;;;;;;;;4982619;28;20045;-74
2023/01/19 02:13:21;;;;;;;0.20;0.20;;;;;;;;;;4981807;28;20369;-73
2023/01/19 02:15:51;;;;;;;0.20;0.20;;;;;;;;;;4979479;28;20486;-75
2023/01/19 02:18:17;;;;;;;0.20;0.20;;;;;;;;;;4999387;28;20108;-73
2023/01/19 02:20:46;;;;;;;0.30;0.30;;;;;;;;;;4989482;28;20030;-72
2023/01/19 02:23:18;;;;;;;0.30;0.30;;;;;;;;;;4987229;28;20038;-72
2023/01/19 02:25:44;;;;;;;0.30;0.30;;;;;;;;;;4990023;28;20484;-71
2023/01/19 02:28:10;;;;;;;0.20;0.20;;;;;;;;;;4984810;28;20018;-72
2023/01/19 02:30:37;;;;;;;0.20;0.20;;;;;;;;;;4983196;28;20026;-72
2023/01/19 02:33:02;;;;;;;0.30;0.30;;;;;;;;;;4984111;28;20525;-73
2023/01/19 02:35:27;;;;;;;0.20;0.20;;;;;;;;;;4985404;28;20020;-73
2023/01/19 02:37:53;;;;;;;0.30;0.30;;;;;;;;;;4986050;28;20872;-70
2023/01/19 02:40:19;;;;;;;0.20;0.20;;;;;;;;;;4979551;28;20030;-72
2023/01/19 02:42:47;;;;;;;0.20;0.20;;;;;;;;;;4982407;28;20372;-72
2023/01/19 02:45:14;;;;;;;0.20;0.20;;;;;;;;;;4983515;28;20124;-71
2023/01/19 02:47:41;;;;;;;0.20;0.20;;;;;;;;;;4988620;28;20022;-74
2023/01/19 02:50:26;;;;;;;0.20;0.20;;;;;;;;;;4985638;28;20026;-71
2023/01/19 02:52:53;;;;;;;0.20;0.20;;;;;;;;;;4982779;28;20027;-72
2023/01/19 02:55:21;;;;;;;0.20;0.20;;;;;;;;;;4993069;28;20129;-72
2023/01/19 02:57:52;;;;;;;0.20;0.20;;;;;;;;;;4982680;28;20035;-72
2023/01/19 03:00:35;;;;;;;0.20;0.20;;;;;;;;;;4979982;28;20018;-72
2023/01/19 03:03:19;;;;;;;0.20;0.20;;;;;;;;;;4983640;28;20783;-73
2023/01/19 03:06:02;;;;;;;0.30;0.30;;;;;;;;;;4985161;28;20026;-72
2023/01/19 03:08:45;;;;;;;0.30;0.30;;;;;;;;;;4985760;28;20033;-72
2023/01/19 03:11:11;;;;;;;0.20;0.20;;;;;;;;;;4981022;28;20027;-72
2023/01/19 03:13:40;;;;;;;0.20;0.20;;;;;;;;;;4979424;28;20065;-72
2023/01/19 03:16:11;;;;;;;0.20;0.20;;;;;;;;;;4982644;28;20026;-72
2023/01/19 03:18:37;;;;;;;0.30;0.30;;;;;;;;;;4981910;28;20064;-72
2023/01/19 03:21:04;;;;;;;0.20;0.20;;;;;;;;;;4984209;28;20145;-72
2023/01/19 03:23:30;;;;;;;0.30;0.30;;;;;;;;;;4985093;28;20060;-72
2023/01/19 03:25:56;;;;;;;0.20;0.20;;;;;;;;;;4987475;28;20088;-72
2023/01/19 03:28:23;;;;;;;0.20;0.20;;;;;;;;;;4981044;28;20030;-72
2023/01/19 03:30:54;;;;;;;0.20;0.20;;;;;;;;;;4986430;28;20102;-72
2023/01/19 03:33:22;;;;;;;0.20;0.20;;;;;;;;;;4979548;28;20061;-74
2023/01/19 03:35:49;;;;;;;0.20;0.20;;;;;;;;;;4982002;28;20026;-73
2023/01/19 03:38:15;;;;;;;0.20;0.20;;;;;;;;;;4987739;28;20037;-73
2023/01/19 03:40:40;;;;;;;0.30;0.30;;;;;;;;;;4983906;28;20030;-73
2023/01/19 03:43:06;;;;;;;0.20;0.20;;;;;;;;;;4981846;28;20034;-73
2023/01/19 03:45:32;;;;;;;0.20;0.20;;;;;;;;;;4982445;28;20538;-74
2023/01/19 03:47:58;;;;;;;0.30;0.30;;;;;;;;;;4982501;28;20030;-75
2023/01/19 03:50:26;;;;;;;0.20;0.20;;;;;;;;;;4982624;28;20804;-74
2023/01/19 03:53:08;;;;;;;0.30;0.30;;;;;;;;;;4985849;28;20101;-73
2023/01/19 03:55:34;;;;;;;0.20;0.20;;;;;;;;;;4985559;28;20045;-74
2023/01/19 03:57:59;;;;;;;0.20;0.20;;;;;;;;;;4998224;28;20214;-73
2023/01/19 04:00:24;;;;;;;0.20;0.20;;;;;;;;;;4992129;28;20026;-73
2023/01/19 04:02:50;;;;;;;0.20;0.20;;;;;;;;;;4982545;28;20473;-73
2023/01/19 04:05:15;;;;;;;0.20;0.20;;;;;;;;;;4983213;28;20030;-74
2023/01/19 04:07:40;;;;;;;0.20;0.20;;;;;;;;;;4980362;28;20035;-74
2023/01/19 04:10:06;;;;;;;0.28;0.28;;;;;;;;;;4990603;28;20045;-74
2023/01/19 04:12:31;;;;;;;0.20;0.20;;;;;;;;;;4980133;28;20272;-73
2023/01/19 04:14:56;;;;;;;0.20;0.20;;;;;;;;;;4997019;28;20026;-73
2023/01/19 04:17:21;;;;;;;0.20;0.20;;;;;;;;;;4986390;28;20060;-74
2023/01/19 04:19:47;;;;;;;0.20;0.20;;;;;;;;;;4985635;28;20267;-74
2023/01/19 04:22:12;;;;;;;0.20;0.20;;;;;;;;;;4982199;28;20280;-73
2023/01/19 04:24:37;;;;;;;0.20;0.20;;;;;;;;;;4984466;28;20061;-72
2023/01/19 04:27:02;;;;;;;0.20;0.20;;;;;;;;;;4988058;28;20037;-75
2023/01/19 04:29:27;;;;;;;0.20;0.20;;;;;;;;;;4987980;28;20138;-76
2023/01/19 04:31:53;;;;;;;0.20;0.20;;;;;;;;;;4986418;28;20112;-74
2023/01/19 04:34:18;;;;;;;0.20;0.20;;;;;;;;;;4987154;28;20037;-75
2023/01/19 04:36:44;;;;;;;0.20;0.20;;;;;;;;;;4996826;28;20042;-73
2023/01/19 04:39:10;;;;;;;0.20;0.20;;;;;;;;;;4995336;28;20125;-73
2023/01/19 04:41:35;;;;;;;0.20;0.20;;;;;;;;;;4989446;28;20061;-73
2023/01/19 04:44:00;;;;;;;0.30;0.30;;;;;;;;;;4983064;28;20065;-72
2023/01/19 04:46:26;;;;;;;0.20;0.20;;;;;;;;;;4982162;28;20472;-72
2023/01/19 04:48:51;;;;;;;0.20;0.20;;;;;;;;;;4985330;28;20081;-73
2023/01/19 04:51:16;;;;;;;0.20;0.20;;;;;;;;;;4985321;28;20385;-73
2023/01/19 04:53:41;;;;;;;0.20;0.20;;;;;;;;;;4979019;28;20026;-73
2023/01/19 04:56:07;;;;;;;0.20;0.20;;;;;;;;;;4978963;28;20402;-74
2023/01/19 04:58:32;;;;;;;0.20;0.20;;;;;;;;;;4985692;28;20038;-73
2023/01/19 05:00:57;;;;;;;0.20;0.20;;;;;;;;;;4985675;28;20066;-72
2023/01/19 05:03:22;;;;;;;0.20;0.20;;;;;;;;;;5010615;22;20052;-74
2023/01/19 05:05:47;;;;;;;0.20;0.20;;;;;;;;;;5002305;28;20127;-73
2023/01/19 05:08:12;;;;;;;0.20;0.20;;;;;;;;;;5002973;28;20113;-72
2023/01/19 05:10:38;;;;;;;0.30;0.30;;;;;;;;;;5006525;28;20022;-74
2023/01/19 05:13:04;;;;;;;0.20;0.20;;;;;;;;;;5001382;28;20088;-73
2023/01/19 05:15:29;;;;;;;0.20;0.20;;;;;;;;;;5001557;28;20026;-72
2023/01/19 05:17:56;;;;;;;0.20;0.20;;;;;;;;;;5001368;28;20018;-73
2023/01/19 05:20:22;;;;;;;0.30;0.30;;;;;;;;;;5004987;28;20018;-72
2023/01/19 05:22:47;;;;;;;0.20;0.20;;;;;;;;;;5001579;28;20518;-73
2023/01/19 05:25:13;;;;;;;0.30;0.30;;;;;;;;;;5002587;28;20050;-72
2023/01/19 05:27:38;;;;;;;0.20;0.20;;;;;;;;;;5000178;28;20025;-73
2023/01/19 05:30:04;;;;;;;0.20;0.20;;;;;;;;;;5005575;28;20037;-72
2023/01/19 05:32:29;;;;;;;0.20;0.20;;;;;;;;;;5000982;28;20030;-72
2023/01/19 05:34:54;;;;;;;0.20;0.20;;;;;;;;;;5003505;28;20026;-72
2023/01/19 05:37:20;;;;;;;0.20;0.20;;;;;;;;;;5006860;28;20029;-72
2023/01/19 05:39:45;;;;;;;0.20;0.20;;;;;;;;;;5003175;28;20053;-72
2023/01/19 05:42:10;;;;;;;0.30;0.30;;;;;;;;;;4993286;28;20052;-72
2023/01/19 05:44:35;;;;;;;0.30;0.30;;;;;;;;;;4996148;28;20349;-72
2023/01/19 05:47:00;;;;;;;0.30;0.30;;;;;;;;;;5004507;28;20026;-72
2023/01/19 05:49:25;;;;;;;0.30;0.30;;;;;;;;;;5007854;28;20100;-72
2023/01/19 05:51:51;;;;;;;0.22;0.22;;;;;;;;;;5001693;28;20027;-72
2023/01/19 05:54:16;;;;;;;0.20;0.20;;;;;;;;;;4997058;28;20034;-72
2023/01/19 05:56:41;;;;;;;0.20;0.20;;;;;;;;;;5005561;28;20519;-72
2023/01/19 05:59:07;;;;;;;0.20;0.20;;;;;;;;;;5007457;28;20029;-73
2023/01/19 06:01:34;;;;;;;0.20;0.20;;;;;;;;;;5002582;28;20654;-72
2023/01/19 06:03:59;;;;;;;0.30;0.30;;;;;;;;;;5008185;28;20032;-72
2023/01/19 06:06:24;;;;;;;0.20;0.20;;;;;;;;;;5018611;28;20408;-72
2023/01/19 06:08:50;;;;;;;0.20;0.20;;;;;;;;;;4999648;28;20026;-72
2023/01/19 06:11:15;;;;;;;0.30;0.30;;;;;;;;;;5006727;28;20466;-72
2023/01/19 06:13:40;;;;;;;0.20;0.20;;;;;;;;;;5009287;28;20021;-73
2023/01/19 06:16:06;;;;;;;0.20;0.20;;;;;;;;;;5015901;28;20378;-72
2023/01/19 06:18:31;;;;;;;0.20;0.20;;;;;;;;;;5010261;28;20021;-72
2023/01/19 06:20:59;;;;;;;0.30;0.30;;;;;;;;;;5005996;28;20021;-72
2023/01/19 06:23:25;;;;;;;0.20;0.20;;;;;;;;;;4997495;28;20393;-73
2023/01/19 06:25:50;;;;;;;0.20;0.20;;;;;;;;;;5009755;28;20026;-72
2023/01/19 06:28:16;;;;;;;0.20;0.20;;;;;;;;;;5006905;28;20029;-72
2023/01/19 06:30:41;;;;;;;0.30;0.30;;;;;;;;;;5006867;28;20253;-72
2023/01/19 06:33:06;;;;;;;0.30;0.30;;;;;;;;;;5008781;28;20021;-72
2023/01/19 06:35:31;;;;;;;0.20;0.20;;;;;;;;;;5004031;28;20283;-72
2023/01/19 06:37:57;;;;;;;0.20;0.20;;;;;;;;;;5004305;28;20577;-72
2023/01/19 06:40:23;;;;;;;0.20;0.20;;;;;;;;;;5002600;28;20041;-72
2023/01/19 06:42:48;;;;;;;0.20;0.20;;;;;;;;;;5001642;28;20029;-72
2023/01/19 06:45:13;;;;;;;0.30;0.30;;;;;;;;;;5002450;28;20592;-72
2023/01/19 06:47:38;;;;;;;0.28;0.28;;;;;;;;;;5001563;28;20021;-72
2023/01/19 06:50:04;;;;;;;0.30;0.30;;;;;;;;;;5013205;28;20472;-72
2023/01/19 06:52:29;;;;;;;0.20;0.20;;;;;;;;;;5005415;28;20453;-72
2023/01/19 06:54:54;;;;;;;0.20;0.20;;;;;;;;;;5011978;28;20310;-72
2023/01/19 06:57:19;;;;;;;0.20;0.20;;;;;;;;;;5006436;28;20661;-72
2023/01/19 06:59:45;;;;;;;0.30;0.30;;;;;;;;;;5005356;28;20255;-72
2023/01/19 07:02:10;;;;;;;0.30;0.30;;;;;;;;;;5003547;28;20023;-72
2023/01/19 07:04:35;;;;;;;0.30;0.30;;;;;;;;;;4999551;28;20026;-72
2023/01/19 07:07:01;;;;;;;0.20;0.20;;;;;;;;;;5002359;28;20132;-72
2023/01/19 07:09:26;;;;;;;0.20;0.20;;;;;;;;;;5006361;28;20029;-72
2023/01/19 07:11:52;;;;;;;0.28;0.28;;;;;;;;;;4999002;28;20065;-72
2023/01/19 07:14:18;;;;;;;0.30;0.30;;;;;;;;;;5003763;28;20368;-72
2023/01/19 07:16:43;;;;;;;0.20;0.20;;;;;;;;;;5004113;28;20482;-72
2023/01/19 07:19:09;;;;;;;0.20;0.20;;;;;;;;;;5007307;28;20068;-72
2023/01/19 07:21:34;;;;;;;0.20;0.20;;;;;;;;;;5019137;28;20037;-72
2023/01/19 07:24:00;;;;;;;0.30;0.30;;;;;;;;;;5003939;28;20017;-72
2023/01/19 07:26:26;;;;;;;0.20;0.20;;;;;;;;;;5001852;28;20106;-72
2023/01/19 07:28:51;;;;;;;0.30;0.30;;;;;;;;;;4997324;28;20496;-73
2023/01/19 07:31:17;;;;;;;0.30;0.30;;;;;;;;;;5000935;28;20036;-72
2023/01/19 07:33:43;;;;;;;0.30;0.30;;;;;;;;;;4997511;28;20052;-72
2023/01/19 07:36:08;;;;;;;0.20;0.20;;;;;;;;;;5000738;28;20053;-72
2023/01/19 07:38:33;;;;;;;0.20;0.20;;;;;;;;;;5001580;28;20029;-73
2023/01/19 07:41:02;;;;;;;0.30;0.30;;;;;;;;;;5015175;28;20037;-72
2023/01/19 07:43:28;;;;;;;0.20;0.20;;;;;;;;;;4999994;28;20029;-72
2023/01/19 07:45:57;;;;;;;0.30;0.30;;;;;;;;;;5001107;28;20033;-72
2023/01/19 07:48:22;;;;;;;0.25;0.25;;;;;;;;;;5011674;28;20030;-74
2023/01/19 07:50:47;;;;;;;0.30;0.30;;;;;;;;;;5002968;28;20049;-73
2023/01/19 07:53:13;;;;;;;0.30;0.30;;;;;;;;;;4999510;28;20414;-74
2023/01/19 07:55:38;;;;;;;0.30;0.30;;;;;;;;;;5010219;28;20014;-73
2023/01/19 07:58:06;;;;;;;0.30;0.30;;;;;;;;;;5004131;28;20133;-72
2023/01/19 08:00:31;;;;;;;0.30;0.30;;;;;;;;;;5004815;28;20025;-72
2023/01/19 08:02:58;;;;;;;0.30;0.30;;;;;;;;;;5013561;28;20022;-73
2023/01/19 08:05:24;;;;;;;0.30;0.30;;;;;;;;;;5013784;28;20052;-73
2023/01/19 08:07:49;;;;;;;0.20;0.20;;;;;;;;;;5012904;28;20060;-72
2023/01/19 08:10:16;;;;;;;0.30;0.30;;;;;;;;;;5036159;28;20149;-72
2023/01/19 08:12:41;;;;;;;0.30;0.30;;;;;;;;;;5012128;28;20034;-72
2023/01/19 08:15:07;;;;;;;0.30;0.30;;;;;;;;;;5010518;28;20013;-72
2023/01/19 08:17:33;;;;;;;0.30;0.30;;;;;;;;;;5013285;28;20013;-72
2023/01/19 08:19:58;;;;;;;0.30;0.30;;;;;;;;;;5003876;28;20028;-72
2023/01/19 08:22:23;;;;;;;0.20;0.20;;;;;;;;;;5016645;28;20033;-72
2023/01/19 08:24:48;;;;;;;0.30;0.30;;;;;;;;;;4998025;28;20096;-72
2023/01/19 08:27:13;;;;;;;0.30;0.30;;;;;;;;;;5011074;28;20064;-72
2023/01/19 08:29:39;;;;;;;0.20;0.20;;;;;;;;;;4996057;28;20141;-72
2023/01/19 08:32:05;;;;;;;0.30;0.30;;;;;;;;;;5010448;28;20820;-72
2023/01/19 08:34:30;;;;;;;0.30;0.30;;;;;;;;;;4999009;28;20303;-72
2023/01/19 08:36:56;;;;;;;0.40;0.40;;;;;;;;;;5002705;28;20030;-72
2023/01/19 08:39:22;;;;;;;0.20;0.20;;;;;;;;;;5012563;28;20032;-72
2023/01/19 08:41:48;;;;;;;0.22;0.22;;;;;;;;;;5006748;28;20029;-72
2023/01/19 08:44:13;;;;;;;0.30;0.30;;;;;;;;;;5009767;28;20030;-73
2023/01/19 08:46:38;;;;;;;0.32;0.32;;;;;;;;;;4998104;28;20076;-72
2023/01/19 08:49:03;;;;;;;0.30;0.30;;;;;;;;;;5018854;28;20061;-73
2023/01/19 08:51:28;;;;;;;0.40;0.40;;;;;;;;;;5005575;28;20037;-73
2023/01/19 08:53:54;;;;;;;0.30;0.30;;;;;;;;;;5007887;28;20053;-72
2023/01/19 08:56:19;;;;;;;0.30;0.30;;;;;;;;;;5008086;28;20267;-73
2023/01/19 08:58:44;;;;;;;0.30;0.30;;;;;;;;;;5012856;28;20029;-72
2023/01/19 09:01:13;;;;;;;0.30;0.30;;;;;;;;;;4998010;28;20149;-73
2023/01/19 09:03:38;;;;;;;0.20;0.20;;;;;;;;;;5010845;28;20030;-72
2023/01/19 09:06:04;;;;;;;0.20;0.20;;;;;;;;;;5005195;28;20041;-72
2023/01/19 09:08:29;;;;;;;0.20;0.20;;;;;;;;;;5004749;28;20615;-73
2023/01/19 09:10:55;;;;;;;0.30;0.30;;;;;;;;;;5017416;28;20357;-72
2023/01/19 09:13:20;;;;;;;0.20;0.20;;;;;;;;;;5004619;28;20022;-73
2023/01/19 09:15:45;;;;;;;0.20;0.20;;;;;;;;;;5021227;28;20025;-72
2023/01/19 09:18:12;;;;;;;0.30;0.30;;;;;;;;;;5013599;28;20768;-72
2023/01/19 09:20:38;;;;;;;0.20;0.20;;;;;;;;;;5011164;28;20026;-73
2023/01/19 09:23:04;;;;;;;0.20;0.20;;;;;;;;;;5003807;28;20037;-72
2023/01/19 09:25:29;;;;;;;0.20;0.20;;;;;;;;;;4996086;28;20076;-72
2023/01/19 09:27:55;;;;;;;0.20;0.20;;;;;;;;;;5005012;28;20076;-73
2023/01/19 09:30:20;;;;;;;0.30;0.30;;;;;;;;;;5003823;28;20022;-72
2023/01/19 09:32:45;;;;;;;0.20;0.20;;;;;;;;;;5009606;28;20395;-72
2023/01/19 09:35:10;;;;;;;0.27;0.27;;;;;;;;;;5002536;28;20353;-72
2023/01/19 09:37:36;;;;;;;0.30;0.30;;;;;;;;;;5014218;28;20266;-72
2023/01/19 09:40:01;;;;;;;0.30;0.30;;;;;;;;;;5011257;28;20017;-72
2023/01/19 09:42:41;;;;;;;0.30;0.30;;;;;;;;;;4997755;28;20121;-73
2023/01/19 09:45:10;;;;;;;0.20;0.20;;;;;;;;;;5012756;28;20392;-72
2023/01/19 09:47:37;;;;;;;0.20;0.20;;;;;;;;;;4994251;28;20041;-72
2023/01/19 09:50:05;;;;;;;0.20;0.20;;;;;;;;;;5010238;28;20034;-72
2023/01/19 09:52:31;;;;;;;0.30;0.30;;;;;;;;;;5006349;28;20489;-72
2023/01/19 09:54:57;;;;;;;0.30;0.30;;;;;;;;;;5000814;28;20034;-72
2023/01/19 09:57:23;;;;;;;0.30;0.30;;;;;;;;;;5004748;28;20236;-72
2023/01/19 09:59:50;;;;;;;0.30;0.30;;;;;;;;;;5003554;28;20469;-72
2023/01/19 10:02:15;;;;;;;0.32;0.32;;;;;;;;;;4997364;28;20018;-72
2023/01/19 10:04:47;;;;;;;0.20;0.20;;;;;;;;;;5013892;28;20067;-72
2023/01/19 10:07:12;;;;;;;0.20;0.20;;;;;;;;;;5007621;28;20418;-72
2023/01/19 10:09:40;;;;;;;0.30;0.30;;;;;;;;;;5006532;28;20081;-72
2023/01/19 10:12:15;;;;;;;0.30;0.30;;;;;;;;;;5001671;28;20321;-72
2023/01/19 10:14:44;;;;;;;0.20;0.20;;;;;;;;;;5005918;28;20452;-72
2023/01/19 10:17:18;;;;;;;0.20;0.20;;;;;;;;;;5004499;28;20393;-72
2023/01/19 10:19:46;;;;;;;0.35;0.35;;;;;;;;;;5006530;28;20427;-72
2023/01/19 10:22:19;;;;;;;0.30;0.30;;;;;;;;;;4999547;28;20029;-72
2023/01/19 10:24:45;;;;;;;0.30;0.30;;;;;;;;;;5002665;28;20103;-72
2023/01/19 10:27:23;;;;;;;0.30;0.30;;;;;;;;;;5016676;28;20061;-72
2023/01/19 10:29:48;;;;;;;0.30;0.30;;;;;;;;;;4998439;28;20025;-72
2023/01/19 10:32:16;;;;;;;0.30;0.30;;;;;;;;;;5001743;28;20330;-72
2023/01/19 10:34:41;;;;;;;0.40;0.40;;;;;;;;;;5002676;28;20033;-72
2023/01/19 10:37:25;;;;;;;0.30;0.30;;;;;;;;;;5000519;28;20029;-73
2023/01/19 10:39:51;;;;;;;0.30;0.30;;;;;;;;;;5005457;28;20045;-72
2023/01/19 10:42:16;;;;;;;0.30;0.30;;;;;;;;;;5009320;28;20048;-72
2023/01/19 10:44:44;;;;;;;0.40;0.40;;;;;;;;;;5004594;28;20030;-72
2023/01/19 10:47:19;;;;;;;0.30;0.30;;;;;;;;;;5000340;28;20120;-72
2023/01/19 10:49:45;;;;;;;0.20;0.20;;;;;;;;;;4999525;28;20535;-72
2023/01/19 10:52:38;;;;;;;0.25;0.25;;;;;;;;;;5005433;28;20116;-73
2023/01/19 10:55:04;;;;;;;0.30;0.30;;;;;;;;;;5002503;28;20032;-73
2023/01/19 10:57:30;;;;;;;0.40;0.40;;;;;;;;;;5012326;28;20022;-73
2023/01/19 10:59:56;;;;;;;0.32;0.32;;;;;;;;;;5001237;28;20468;-72
2023/01/19 11:02:25;;;;;;;0.20;0.20;;;;;;;;;;5005738;28;20034;-72
2023/01/19 11:04:51;;;;;;;0.30;0.30;;;;;;;;;;5012516;28;20029;-73
2023/01/19 11:07:20;;;;;;;0.30;0.30;;;;;;;;;;5002035;28;20032;-73
2023/01/19 11:09:45;;;;;;;0.25;0.25;;;;;;;;;;5000853;28;20034;-72
2023/01/19 11:12:21;;;;;;;0.28;0.28;;;;;;;;;;5011373;28;20041;-72
2023/01/19 11:14:47;;;;;;;0.20;0.20;;;;;;;;;;5004907;28;20029;-73
2023/01/19 11:17:20;;;;;;;0.28;0.28;;;;;;;;;;5008827;28;20120;-73
2023/01/19 11:19:54;;;;;;;0.20;0.20;;;;;;;;;;5005654;28;20057;-72
2023/01/19 11:22:23;;;;;;;0.30;0.30;;;;;;;;;;5004609;28;20057;-72
2023/01/19 11:24:49;;;;;;;0.20;0.20;;;;;;;;;;5001409;28;20105;-73
2023/01/19 11:27:18;;;;;;;0.20;0.20;;;;;;;;;;5002264;28;20044;-72
2023/01/19 11:29:55;;;;;;;0.20;0.20;;;;;;;;;;5009399;28;20040;-72
2023/01/19 11:32:21;;;;;;;0.20;0.20;;;;;;;;;;5002350;28;20040;-72
2023/01/19 11:34:46;;;;;;;0.20;0.20;;;;;;;;;;5004923;28;20010;-73
2023/01/19 11:37:15;;;;;;;0.25;0.20;;;;;;;;;;5005752;28;20035;-72
2023/01/19 11:39:51;;;;;;;0.25;0.25;;;;;;;;;;5007040;28;20398;-72
2023/01/19 11:42:16;;;;;;;0.20;0.20;;;;;;;;;;5007099;28;20036;-73
2023/01/19 11:44:45;;;;;;;0.20;0.20;;;;;;;;;;5006196;28;20026;-72
2023/01/19 11:47:13;;;;;;;0.20;0.20;;;;;;;;;;5002715;28;20036;-73
2023/01/19 11:49:45;;;;;;;0.30;0.30;;;;;;;;;;5003867;28;20108;-72
2023/01/19 11:52:25;;;;;;;0.20;0.20;;;;;;;;;;5003900;28;20121;-73
2023/01/19 11:54:54;;;;;;;0.20;0.20;;;;;;;;;;5001639;28;20014;-72
2023/01/19 11:57:20;;;;;;;0.20;0.20;;;;;;;;;;4997987;28;20026;-72
2023/01/19 11:59:45;;;;;;;0.20;0.20;;;;;;;;;;4998018;28;20841;-72
2023/01/19 12:02:22;;;;;;;0.20;0.20;;;;;;;;;;5005906;28;20036;-72
2023/01/19 12:04:48;;;;;;;0.20;0.20;;;;;;;;;;5009620;28;20056;-72
2023/01/19 12:07:18;;;;;;;0.20;0.20;;;;;;;;;;5007692;28;20452;-72
2023/01/19 12:09:50;;;;;;;0.20;0.20;;;;;;;;;;5002657;28;20105;-72
2023/01/19 12:12:29;;;;;;;0.20;0.20;;;;;;;;;;5001182;28;20496;-73
2023/01/19 12:15:03;;;;;;;0.20;0.20;;;;;;;;;;5007731;28;20152;-73
2023/01/19 12:17:28;;;;;;;;;;;;;;;;;;5007013;28;20029;-73
2023/01/19 12:20:00;;;;;;;0.20;0.20;;;;;;;;;;5002360;28;19917;-72
2023/01/19 12:22:27;;;;;;;0.20;0.20;;;;;;;;;;4998485;28;20035;-72
2023/01/19 12:25:04;;;;;;;0.20;0.20;;;;;;;;;;4999334;28;20029;-73
2023/01/19 12:27:35;;;;;;;0.20;0.20;;;;;;;;;;4998094;28;20030;-73
2023/01/19 12:30:01;;;;;;;0.20;0.20;;;;;;;;;;4992774;28;20058;-73
2023/01/19 12:32:33;;;;;;;0.10;0.10;;;;;;;;;;5002949;28;20130;-74
2023/01/19 12:34:58;;;;;;;0.20;0.20;;;;;;;;;;5005086;28;20025;-72
2023/01/19 12:37:30;;;;;;;0.20;0.20;;;;;;;;;;4998709;28;20293;-72
2023/01/19 12:39:56;;;;;;;0.20;0.20;;;;;;;;;;4995689;28;20034;-73
2023/01/19 12:42:21;;;;;;;0.20;0.20;;;;;;;;;;5002698;28;20022;-73
2023/01/19 12:44:46;;;;;;;0.20;0.20;;;;;;;;;;5009171;28;20034;-72
2023/01/19 12:47:12;;;;;;;0.20;0.20;;;;;;;;;;5001561;28;20101;-72
2023/01/19 12:49:37;;;;;;;0.10;0.10;;;;;;;;;;5008328;28;20026;-73
2023/01/19 12:52:20;;;;;;;0.20;0.20;;;;;;;;;;5008306;28;20049;-73
2023/01/19 12:54:54;;;;;;;0.20;0.20;;;;;;;;;;5002238;28;20048;-73
2023/01/19 12:57:23;;;;;;;0.20;0.20;;;;;;;;;;5009669;28;20109;-73
2023/01/19 12:59:54;;;;;;;0.20;0.20;;;;;;;;;;5014997;28;20514;-74
2023/01/19 13:02:19;;;;;;;0.10;0.10;;;;;;;;;;5005363;28;20120;-73
2023/01/19 13:05:13;;;;;;;0.10;0.10;;;;;;;;;;5006025;28;20129;-72
2023/01/19 13:07:57;;;;;;;0.10;0.10;;;;;;;;;;4997850;28;20029;-74
2023/01/19 13:10:41;;;;;;;0.20;0.20;;;;;;;;;;4992572;28;20022;-73
2023/01/19 13:13:16;;;;;;;0.10;0.10;;;;;;;;;;5007008;28;20103;-75
2023/01/19 13:15:43;;;;;;;0.10;0.10;;;;;;;;;;5003054;28;20040;-73
2023/01/19 13:18:08;;;;;;;0.20;0.20;;;;;;;;;;5001200;28;20054;-75
2023/01/19 13:20:42;;;;;;;0.10;0.10;;;;;;;;;;4999903;28;20112;-73
2023/01/19 13:23:15;;;;;;;0.20;0.20;;;;;;;;;;4998685;28;20033;-75
2023/01/19 13:25:41;;;;;;;0.15;0.15;;;;;;;;;;5002008;28;20488;-77
2023/01/19 13:28:07;;;;;;;0.20;0.20;;;;;;;;;;4999894;28;20034;-73
2023/01/19 13:30:33;;;;;;;0.10;0.10;;;;;;;;;;4994536;28;20524;-73
2023/01/19 13:33:18;;;;;;;0.20;0.20;;;;;;;;;;5001894;28;20022;-73
2023/01/19 13:36:01;;;;;;;0.20;0.20;;;;;;;;;;4999571;28;20100;-75
2023/01/19 13:38:28;;;;;;;0.10;0.10;;;;;;;;;;5011772;28;20033;-73
2023/01/19 13:40:54;;;;;;;0.10;0.10;;;;;;;;;;5003112;28;20029;-75
2023/01/19 13:43:25;;;;;;;0.10;0.10;;;;;;;;;;5001444;28;20164;-75
2023/01/19 13:45:50;;;;;;;0.10;0.10;;;;;;;;;;5009089;28;20036;-75
2023/01/19 13:48:17;;;;;;;0.10;0.10;;;;;;;;;;5006793;28;20026;-75
2023/01/19 13:50:54;;;;;;;0.10;0.10;;;;;;;;;;5002831;28;20026;-73
2023/01/19 13:53:19;;;;;;;0.10;0.10;;;;;;;;;;5004330;28;20030;-74
2023/01/19 13:55:46;;;;;;;0.10;0.10;;;;;;;;;;5003531;28;20063;-72
2023/01/19 13:58:22;;;;;;;0.10;0.10;;;;;;;;;;5003559;28;20025;-72
2023/01/19 14:00:47;;;;;;;0.20;0.20;;;;;;;;;;4999046;28;20053;-73
2023/01/19 14:03:17;;;;;;;0.10;0.10;;;;;;;;;;5004189;28;20101;-73
2023/01/19 14:05:42;;;;;;;0.10;0.10;;;;;;;;;;5008564;28;20255;-72
2023/01/19 14:08:09;;;;;;;0.20;0.20;;;;;;;;;;5004173;28;20022;-72
2023/01/19 14:10:36;;;;;;;0.10;0.10;;;;;;;;;;5001974;28;20546;-73
2023/01/19 14:13:10;;;;;;;0.10;0.10;;;;;;;;;;5003304;28;20040;-72
2023/01/19 14:15:37;;;;;;;0.10;0.10;;;;;;;;;;5001992;28;20036;-73
2023/01/19 14:18:23;;;;;;;0.10;0.10;;;;;;;;;;5004948;28;20828;-72
2023/01/19 14:20:56;;;;;;;0.20;0.20;;;;;;;;;;4997758;28;20558;-73
2023/01/19 14:23:39;;;;;;;0.13;0.13;;;;;;;;;;5019030;28;20037;-73
2023/01/19 14:26:04;;;;;;;0.10;0.10;;;;;;;;;;5000289;28;20053;-72
2023/01/19 14:28:34;;;;;;;0.20;0.20;;;;;;;;;;5004271;28;20030;-73
2023/01/19 14:31:16;;;;;;;0.13;0.13;;;;;;;;;;5002473;28;20477;-73
2023/01/19 14:33:44;;;;;;;0.15;0.15;;;;;;;;;;5000981;28;20062;-73
2023/01/19 14:36:23;;;;;;;0.17;0.17;;;;;;;;;;5004247;28;20643;-73
2023/01/19 14:38:50;;;;;;;0.20;0.20;;;;;;;;;;5003344;28;20105;-73
2023/01/19 14:41:26;;;;;;;0.10;0.10;;;;;;;;;;5000812;28;20034;-72
2023/01/19 14:43:54;;;;;;;0.20;0.20;;;;;;;;;;5003599;28;20022;-73
2023/01/19 14:46:20;;;;;;;0.20;0.20;;;;;;;;;;4997945;28;20132;-73
2023/01/19 14:48:46;;;;;;;0.20;0.20;;;;;;;;;;5005254;28;20034;-72
2023/01/19 14:51:15;;;;;;;0.20;0.20;;;;;;;;;;5004716;28;20026;-73
2023/01/19 14:53:45;;;;;;;0.17;0.17;;;;;;;;;;5002082;28;20418;-74